White Settlement, Texas
Current Conditions -  °F | °C
As of 11:52 AM on Friday 19 Dec 2014 (Local Time) from KNFW Reporting Station
Overcast Overcast  
Wind Chill: 50°   Ceiling: 800
Heat Index: 50°   Visibility: 10mi
Dew Point: 42°   Wind: 12mph
Humidity: 74%   Direction: 360°N
Pressure: 30.23"   Gusts: NA
Location:  32.7792°N, 97.5244°W
Report Text: KNFW 191752Z 36010KT 10SM OVC008 10/06 A3023 RMK AO2 SLP218 60001 T01000056 10100 20089 58002
Loading
Personal Weather Stations






























Interactive Weather Map New forecast layout! Learn more

10-Day Weather Forecast

Advertisements
Track Severe Weather on mobile